Time;durP1;ratioP1;P1;durP2;ratioP2;P2;SDS_P1;SDS_P2;PMS_P1;PMS_P2;Temp;Humidity;BMP_temperature;BMP_pressure;BME280_temperature;BME280_humidity;BME280_pressure;Samples;Min_cycle;Max_cycle;Signal;HPM_P1;HPM_P2
2022/02/13 00:00:39;;;;;;;30.40;16.77;;;;;;;;;;754510;183;921711;-68
2022/02/13 00:03:05;;;;;;;27.83;17.07;;;;;;;;;;755321;184;983999;-68
2022/02/13 00:05:31;;;;;;;26.60;15.50;;;;;;;;;;750631;183;918529;-67
2022/02/13 00:08:00;;;;;;;22.10;13.70;;;;;;;;;;750721;180;919645;-68
2022/02/13 00:10:22;;;;;;;27.40;14.60;;;;;;;;;;759590;182;1023682;-68
2022/02/13 00:12:48;;;;;;;22.83;11.70;;;;;;;;;;753112;184;919138;-68
2022/02/13 00:15:14;;;;;;;19.60;11.93;;;;;;;;;;752347;184;919041;-68
2022/02/13 00:17:40;;;;;;;21.73;11.67;;;;;;;;;;766910;183;919028;-68
2022/02/13 00:20:06;;;;;;;22.10;11.00;;;;;;;;;;755394;184;919106;-68
2022/02/13 00:22:32;;;;;;;15.43;9.77;;;;;;;;;;755251;183;981219;-68
2022/02/13 00:24:58;;;;;;;18.30;10.27;;;;;;;;;;752128;183;919817;-68
2022/02/13 00:27:24;;;;;;;16.67;9.98;;;;;;;;;;756774;184;919289;-68
2022/02/13 00:29:50;;;;;;;15.20;9.97;;;;;;;;;;757300;182;919263;-68
2022/02/13 00:32:15;;;;;;;17.17;9.80;;;;;;;;;;756879;184;919740;-68
2022/02/13 00:34:44;;;;;;;17.90;10.97;;;;;;;;;;760825;184;919429;-68
2022/02/13 00:37:07;;;;;;;14.83;9.63;;;;;;;;;;754459;184;918106;-68
2022/02/13 00:39:33;;;;;;;19.07;10.13;;;;;;;;;;757834;184;918826;-68
2022/02/13 00:41:59;;;;;;;14.20;8.17;;;;;;;;;;765847;184;918802;-68
2022/02/13 00:44:26;;;;;;;16.87;8.77;;;;;;;;;;759364;182;921647;-67
2022/02/13 00:46:51;;;;;;;14.97;7.70;;;;;;;;;;754974;185;919109;-68
2022/02/13 00:49:17;;;;;;;16.85;10.02;;;;;;;;;;756245;183;919870;-66
2022/02/13 00:51:44;;;;;;;18.70;11.47;;;;;;;;;;758099;185;915818;-67
2022/02/13 00:54:09;;;;;;;15.70;9.23;;;;;;;;;;754487;182;917598;-67
2022/02/13 00:56:35;;;;;;;17.67;10.50;;;;;;;;;;749873;184;919965;-67
2022/02/13 00:59:01;;;;;;;17.77;10.68;;;;;;;;;;758056;184;914896;-67
2022/02/13 01:01:27;;;;;;;13.23;9.30;;;;;;;;;;758896;184;916228;-67
2022/02/13 01:03:54;;;;;;;16.40;9.63;;;;;;;;;;758325;183;1017315;-68
2022/02/13 01:06:20;;;;;;;15.43;9.80;;;;;;;;;;761262;182;918989;-68
2022/02/13 01:08:45;;;;;;;14.43;9.00;;;;;;;;;;755367;184;919210;-67
2022/02/13 01:11:11;;;;;;;13.50;8.97;;;;;;;;;;753433;184;917891;-68
2022/02/13 01:13:38;;;;;;;17.15;7.97;;;;;;;;;;761114;184;918786;-67
2022/02/13 01:16:04;;;;;;;15.10;8.93;;;;;;;;;;756671;183;919145;-67
2022/02/13 01:18:29;;;;;;;15.80;8.13;;;;;;;;;;755345;185;919611;-68
2022/02/13 01:20:56;;;;;;;14.25;8.80;;;;;;;;;;750536;184;919510;-68
2022/02/13 01:23:21;;;;;;;13.67;8.60;;;;;;;;;;760535;185;926043;-68
2022/02/13 01:25:47;;;;;;;14.00;8.20;;;;;;;;;;755682;182;919619;-68
2022/02/13 01:28:13;;;;;;;14.40;8.97;;;;;;;;;;755299;184;919274;-68
2022/02/13 01:30:40;;;;;;;18.17;7.90;;;;;;;;;;766961;181;919968;-68
2022/02/13 01:33:05;;;;;;;12.17;7.80;;;;;;;;;;759300;182;918746;-68
2022/02/13 01:35:31;;;;;;;11.90;7.20;;;;;;;;;;751186;182;923444;-67
2022/02/13 01:37:57;;;;;;;14.10;8.53;;;;;;;;;;759842;184;1021600;-68
2022/02/13 01:40:23;;;;;;;14.83;8.83;;;;;;;;;;752719;183;920548;-68
2022/02/13 01:42:49;;;;;;;15.47;9.90;;;;;;;;;;757013;182;922090;-69
2022/02/13 01:45:15;;;;;;;13.43;8.77;;;;;;;;;;753479;184;915057;-68
2022/02/13 01:47:41;;;;;;;14.80;9.40;;;;;;;;;;763925;184;919511;-69
2022/02/13 01:50:07;;;;;;;12.77;7.93;;;;;;;;;;757887;182;919460;-68
2022/02/13 01:52:33;;;;;;;10.00;6.57;;;;;;;;;;749132;185;918943;-69
2022/02/13 01:54:59;;;;;;;14.80;8.60;;;;;;;;;;765100;182;918839;-69
2022/02/13 01:57:25;;;;;;;14.67;8.80;;;;;;;;;;756317;185;919584;-69
2022/02/13 01:59:51;;;;;;;10.60;6.83;;;;;;;;;;757304;182;919204;-69
2022/02/13 02:02:17;;;;;;;16.70;7.97;;;;;;;;;;757632;181;918828;-68
2022/02/13 02:04:43;;;;;;;12.53;8.00;;;;;;;;;;754949;183;919201;-68
2022/02/13 02:07:09;;;;;;;11.60;8.38;;;;;;;;;;755809;182;919382;-69
2022/02/13 02:09:34;;;;;;;11.33;7.87;;;;;;;;;;753611;182;918859;-68
2022/02/13 02:12:02;;;;;;;15.80;8.33;;;;;;;;;;760912;182;918506;-68
2022/02/13 02:14:27;;;;;;;13.23;8.50;;;;;;;;;;757199;183;846874;-68
2022/02/13 02:16:53;;;;;;;12.40;8.20;;;;;;;;;;755598;184;918268;-69
2022/02/13 02:19:19;;;;;;;13.07;7.90;;;;;;;;;;760189;184;918197;-69
2022/02/13 02:21:45;;;;;;;15.00;8.53;;;;;;;;;;753420;183;918411;-68
2022/02/13 02:24:11;;;;;;;9.83;7.57;;;;;;;;;;752262;182;919404;-70
2022/02/13 02:26:37;;;;;;;12.90;7.93;;;;;;;;;;760454;182;919549;-68
2022/02/13 02:29:03;;;;;;;14.40;9.00;;;;;;;;;;755615;182;983318;-69
2022/02/13 02:31:29;;;;;;;12.90;8.50;;;;;;;;;;756414;182;919413;-69
2022/02/13 02:33:54;;;;;;;12.02;8.43;;;;;;;;;;755271;182;919286;-68
2022/02/13 02:36:20;;;;;;;11.97;8.40;;;;;;;;;;759287;183;919322;-69
2022/02/13 02:38:46;;;;;;;21.10;9.43;;;;;;;;;;755985;181;918245;-69
2022/02/13 02:41:12;;;;;;;14.33;9.33;;;;;;;;;;757719;183;918454;-68
2022/02/13 02:43:38;;;;;;;11.23;8.13;;;;;;;;;;761533;183;1123804;-70
2022/02/13 02:46:04;;;;;;;14.20;7.77;;;;;;;;;;754951;182;920611;-68
2022/02/13 02:48:30;;;;;;;12.80;9.07;;;;;;;;;;755678;183;1021349;-69
2022/02/13 02:50:56;;;;;;;14.10;8.63;;;;;;;;;;758666;184;1123860;-69
2022/02/13 02:53:22;;;;;;;11.53;8.87;;;;;;;;;;757975;183;1021576;-69
2022/02/13 02:55:47;;;;;;;13.37;9.53;;;;;;;;;;760205;184;919459;-69
2022/02/13 02:58:14;;;;;;;15.15;8.45;;;;;;;;;;753963;184;952133;-67
2022/02/13 03:00:39;;;;;;;12.63;8.33;;;;;;;;;;750089;183;919345;-68
2022/02/13 03:03:05;;;;;;;13.67;8.13;;;;;;;;;;740149;185;918928;-69
2022/02/13 03:05:31;;;;;;;14.98;8.50;;;;;;;;;;739075;186;943660;-69
2022/02/13 03:07:57;;;;;;;13.83;8.93;;;;;;;;;;746652;187;919480;-69
2022/02/13 03:10:23;;;;;;;11.93;8.07;;;;;;;;;;736970;187;919971;-69
2022/02/13 03:12:48;;;;;;;13.55;9.20;;;;;;;;;;739039;183;919033;-69
2022/02/13 03:15:14;;;;;;;14.10;8.60;;;;;;;;;;745173;187;918742;-69
2022/02/13 03:17:40;;;;;;;15.70;7.97;;;;;;;;;;738863;187;919482;-68
2022/02/13 03:20:06;;;;;;;13.40;8.30;;;;;;;;;;739378;187;918912;-70
2022/02/13 03:22:32;;;;;;;13.63;8.90;;;;;;;;;;743736;187;921413;-69
2022/02/13 03:24:59;;;;;;;13.60;8.47;;;;;;;;;;740214;185;917995;-69
2022/02/13 03:27:25;;;;;;;11.83;7.90;;;;;;;;;;739278;185;919006;-68
2022/02/13 03:29:50;;;;;;;10.07;7.80;;;;;;;;;;738570;187;919301;-68
2022/02/13 03:32:16;;;;;;;14.77;8.70;;;;;;;;;;742562;187;919847;-69
2022/02/13 03:34:42;;;;;;;13.27;7.87;;;;;;;;;;736207;185;918622;-68
2022/02/13 03:37:08;;;;;;;15.70;7.53;;;;;;;;;;737350;187;919205;-69
2022/02/13 03:39:34;;;;;;;11.63;8.37;;;;;;;;;;743814;185;919438;-69
2022/02/13 03:42:00;;;;;;;11.55;7.55;;;;;;;;;;741966;185;918428;-69
2022/02/13 03:44:26;;;;;;;14.60;7.53;;;;;;;;;;737193;187;917865;-69
2022/02/13 03:46:52;;;;;;;14.10;8.00;;;;;;;;;;742300;187;929213;-68
2022/02/13 03:49:18;;;;;;;13.32;8.05;;;;;;;;;;734626;187;918403;-68
2022/02/13 03:51:43;;;;;;;12.10;6.70;;;;;;;;;;740414;185;1021615;-69
2022/02/13 03:54:09;;;;;;;11.67;7.97;;;;;;;;;;742171;187;918669;-69
2022/02/13 03:56:35;;;;;;;12.47;7.60;;;;;;;;;;745506;185;919382;-69
2022/02/13 03:59:01;;;;;;;10.13;6.90;;;;;;;;;;739593;186;919105;-68
2022/02/13 04:01:27;;;;;;;10.50;7.40;;;;;;;;;;740463;187;919801;-69
2022/02/13 04:03:53;;;;;;;12.35;8.15;;;;;;;;;;748761;186;918104;-68
2022/02/13 04:06:18;;;;;;;16.27;6.97;;;;;;;;;;737612;188;919154;-67
2022/02/13 04:08:44;;;;;;;12.10;7.33;;;;;;;;;;743656;185;1020088;-68
2022/02/13 04:11:10;;;;;;;19.80;8.97;;;;;;;;;;744958;188;919688;-68
2022/02/13 04:13:36;;;;;;;16.80;7.53;;;;;;;;;;735101;188;919988;-69
2022/02/13 04:16:02;;;;;;;13.60;6.80;;;;;;;;;;756049;182;920484;-68
2022/02/13 04:18:28;;;;;;;14.33;6.73;;;;;;;;;;752565;182;917025;-68
2022/02/13 04:20:54;;;;;;;14.03;7.27;;;;;;;;;;758396;183;919595;-69
2022/02/13 04:23:20;;;;;;;8.87;6.23;;;;;;;;;;759905;184;919385;-69
2022/02/13 04:25:46;;;;;;;12.43;8.20;;;;;;;;;;755346;185;918012;-69
2022/02/13 04:28:12;;;;;;;15.98;7.35;;;;;;;;;;756838;180;919525;-70
2022/02/13 04:30:37;;;;;;;11.57;6.37;;;;;;;;;;759133;182;919726;-69
2022/02/13 04:33:03;;;;;;;9.87;6.63;;;;;;;;;;760274;183;919276;-69
2022/02/13 04:35:29;;;;;;;11.40;6.87;;;;;;;;;;758653;184;1021828;-69
2022/02/13 04:37:55;;;;;;;11.10;6.63;;;;;;;;;;756877;181;918549;-69
2022/02/13 04:40:21;;;;;;;14.07;8.20;;;;;;;;;;756123;182;952876;-70
2022/02/13 04:42:47;;;;;;;12.33;7.13;;;;;;;;;;759553;181;920683;-69
2022/02/13 04:45:13;;;;;;;9.20;6.20;;;;;;;;;;752511;182;915258;-70
2022/02/13 04:47:39;;;;;;;12.20;7.53;;;;;;;;;;762151;182;919996;-70
2022/02/13 04:50:04;;;;;;;9.03;6.37;;;;;;;;;;752867;183;919556;-70
2022/02/13 04:52:30;;;;;;;11.03;8.13;;;;;;;;;;763291;184;919050;-69
2022/02/13 04:54:56;;;;;;;13.18;7.50;;;;;;;;;;756087;182;918882;-70
2022/02/13 04:57:22;;;;;;;12.83;7.80;;;;;;;;;;760444;182;919459;-69
2022/02/13 04:59:48;;;;;;;14.10;8.60;;;;;;;;;;763346;184;918736;-69
2022/02/13 05:02:14;;;;;;;12.60;7.83;;;;;;;;;;755465;183;919698;-70
2022/02/13 05:04:39;;;;;;;11.15;7.15;;;;;;;;;;758149;180;919489;-70
2022/02/13 05:07:06;;;;;;;15.20;6.83;;;;;;;;;;762686;182;918648;-69
2022/02/13 05:09:32;;;;;;;12.13;6.53;;;;;;;;;;755074;182;993241;-70
2022/02/13 05:11:58;;;;;;;16.20;7.27;;;;;;;;;;763247;179;919912;-70
2022/02/13 05:14:24;;;;;;;11.67;7.53;;;;;;;;;;755510;181;919638;-71
2022/02/13 05:16:49;;;;;;;14.53;7.40;;;;;;;;;;754421;177;919504;-69
2022/02/13 05:19:15;;;;;;;12.57;7.70;;;;;;;;;;753388;180;920162;-70
2022/02/13 05:21:41;;;;;;;15.17;8.10;;;;;;;;;;757136;182;919125;-69
2022/02/13 05:24:07;;;;;;;13.30;7.80;;;;;;;;;;758888;183;915849;-69
2022/02/13 05:26:33;;;;;;;10.37;6.50;;;;;;;;;;754173;183;1017543;-70
2022/02/13 05:28:59;;;;;;;12.33;7.70;;;;;;;;;;752566;184;915606;-70
2022/02/13 05:31:29;;;;;;;12.48;7.80;;;;;;;;;;764562;184;916266;-70
2022/02/13 05:33:50;;;;;;;11.80;6.77;;;;;;;;;;746929;184;1734724;-70
2022/02/13 05:36:16;;;;;;;13.30;7.17;;;;;;;;;;755730;182;918953;-69
2022/02/13 05:38:42;;;;;;;15.18;7.70;;;;;;;;;;757123;185;919243;-69
2022/02/13 05:41:08;;;;;;;11.57;8.23;;;;;;;;;;754406;185;918692;-69
2022/02/13 05:43:34;;;;;;;11.90;8.03;;;;;;;;;;754596;185;919448;-69
2022/02/13 05:46:00;;;;;;;18.60;8.98;;;;;;;;;;756043;181;919518;-69
2022/02/13 05:48:26;;;;;;;16.33;8.30;;;;;;;;;;758655;183;1020751;-69
2022/02/13 05:50:51;;;;;;;13.30;7.23;;;;;;;;;;754974;183;919685;-69
2022/02/13 05:53:17;;;;;;;15.87;8.10;;;;;;;;;;754387;183;922930;-69
2022/02/13 05:55:43;;;;;;;11.83;7.57;;;;;;;;;;759973;185;918754;-69
2022/02/13 05:58:09;;;;;;;16.65;7.20;;;;;;;;;;752934;183;919653;-69
2022/02/13 06:00:35;;;;;;;13.40;7.83;;;;;;;;;;757357;182;919241;-70
2022/02/13 06:03:01;;;;;;;11.63;7.50;;;;;;;;;;763361;184;922271;-69
2022/02/13 06:05:26;;;;;;;10.80;7.80;;;;;;;;;;758214;184;919035;-69
2022/02/13 06:07:52;;;;;;;12.57;7.60;;;;;;;;;;755811;182;919636;-70
2022/02/13 06:10:18;;;;;;;10.83;7.60;;;;;;;;;;753947;183;919220;-69
2022/02/13 06:12:44;;;;;;;10.77;6.73;;;;;;;;;;759413;185;918648;-70
2022/02/13 06:15:10;;;;;;;18.00;8.60;;;;;;;;;;756711;182;1021226;-70
2022/02/13 06:17:36;;;;;;;14.70;8.37;;;;;;;;;;755290;181;1020428;-69
2022/02/13 06:20:02;;;;;;;11.50;7.80;;;;;;;;;;761661;182;919164;-69
2022/02/13 06:22:27;;;;;;;12.77;7.43;;;;;;;;;;757727;183;918881;-69
2022/02/13 06:24:53;;;;;;;13.98;7.22;;;;;;;;;;756631;181;919848;-69
2022/02/13 06:27:19;;;;;;;13.33;7.33;;;;;;;;;;761617;182;918640;-69
2022/02/13 06:29:46;;;;;;;12.10;6.87;;;;;;;;;;756515;182;923801;-69
2022/02/13 06:32:11;;;;;;;14.00;7.60;;;;;;;;;;756235;180;939127;-68
2022/02/13 06:34:37;;;;;;;11.47;7.87;;;;;;;;;;757342;184;919546;-69
2022/02/13 06:37:03;;;;;;;15.07;7.53;;;;;;;;;;757892;181;919666;-69
2022/02/13 06:39:29;;;;;;;9.33;6.10;;;;;;;;;;755632;182;918834;-70
2022/02/13 06:41:55;;;;;;;15.00;7.37;;;;;;;;;;753832;181;919482;-70
2022/02/13 06:44:20;;;;;;;10.70;6.93;;;;;;;;;;760650;182;918542;-69
2022/02/13 06:46:46;;;;;;;10.60;6.87;;;;;;;;;;758123;181;918342;-69
2022/02/13 06:49:12;;;;;;;16.23;7.35;;;;;;;;;;757519;182;919382;-69
2022/02/13 06:51:38;;;;;;;8.57;5.93;;;;;;;;;;760941;183;896083;-69
2022/02/13 06:54:04;;;;;;;12.55;7.75;;;;;;;;;;756645;182;919562;-69
2022/02/13 06:56:30;;;;;;;12.37;6.63;;;;;;;;;;752791;182;1207189;-69
2022/02/13 06:58:56;;;;;;;12.60;7.22;;;;;;;;;;761526;182;919389;-68
2022/02/13 07:01:22;;;;;;;15.33;7.80;;;;;;;;;;757277;182;919013;-69
2022/02/13 07:03:49;;;;;;;8.00;5.47;;;;;;;;;;749764;183;919143;-69
2022/02/13 07:06:15;;;;;;;10.65;5.53;;;;;;;;;;754807;183;918675;-69
2022/02/13 07:08:41;;;;;;;9.10;5.77;;;;;;;;;;760395;183;919047;-68
2022/02/13 07:11:07;;;;;;;11.47;6.27;;;;;;;;;;756705;180;920185;-68
2022/02/13 07:13:32;;;;;;;9.77;6.20;;;;;;;;;;756556;183;942757;-68
2022/02/13 07:15:58;;;;;;;11.13;5.83;;;;;;;;;;760324;182;918650;-67
2022/02/13 07:18:24;;;;;;;8.83;5.90;;;;;;;;;;755379;182;919039;-66
2022/02/13 07:20:50;;;;;;;9.40;6.03;;;;;;;;;;755300;183;919324;-66
2022/02/13 07:23:16;;;;;;;14.90;6.07;;;;;;;;;;759117;183;918711;-65
2022/02/13 07:25:42;;;;;;;7.87;5.60;;;;;;;;;;754991;182;1021682;-65
2022/02/13 07:30:39;;;;;;;8.13;5.47;;;;;;;;;;757036;181;1022588;-65
2022/02/13 07:33:05;;;;;;;9.50;6.03;;;;;;;;;;760182;182;1123470;-64
2022/02/13 07:35:31;;;;;;;17.23;5.83;;;;;;;;;;758103;181;924850;-64
2022/02/13 07:37:57;;;;;;;11.30;5.07;;;;;;;;;;754923;184;919768;-65
2022/02/13 07:40:22;;;;;;;7.73;5.10;;;;;;;;;;762299;184;915832;-64
2022/02/13 07:42:48;;;;;;;9.00;4.80;;;;;;;;;;757495;183;919343;-64
2022/02/13 07:45:14;;;;;;;14.30;5.87;;;;;;;;;;754532;182;1018090;-64
2022/02/13 07:47:40;;;;;;;10.53;4.73;;;;;;;;;;755296;183;916279;-62
2022/02/13 07:50:06;;;;;;;8.53;4.90;;;;;;;;;;760577;183;915856;-64
2022/02/13 07:52:32;;;;;;;13.83;5.83;;;;;;;;;;753201;182;919968;-63
2022/02/13 07:54:58;;;;;;;8.30;5.07;;;;;;;;;;748390;184;918967;-63
2022/02/13 07:57:24;;;;;;;12.10;5.67;;;;;;;;;;762656;181;919208;-63
2022/02/13 07:59:50;;;;;;;12.97;4.73;;;;;;;;;;759023;181;919831;-64
2022/02/13 08:02:15;;;;;;;6.67;4.60;;;;;;;;;;758697;185;918242;-63
2022/02/13 08:04:42;;;;;;;9.87;4.33;;;;;;;;;;757762;183;919036;-65
2022/02/13 08:07:07;;;;;;;11.80;4.63;;;;;;;;;;756170;181;918091;-65
2022/02/13 08:09:33;;;;;;;8.23;4.63;;;;;;;;;;754008;184;927266;-65
2022/02/13 08:11:59;;;;;;;7.22;4.03;;;;;;;;;;756930;184;922871;-64
2022/02/13 08:14:25;;;;;;;6.30;4.50;;;;;;;;;;756863;184;1016999;-65
2022/02/13 08:16:51;;;;;;;7.83;4.30;;;;;;;;;;757358;182;919239;-64
2022/02/13 08:19:16;;;;;;;6.03;4.53;;;;;;;;;;752326;180;2069509;-65
2022/02/13 08:21:43;;;;;;;11.80;6.00;;;;;;;;;;764936;185;634847;-65
2022/02/13 08:24:08;;;;;;;7.77;5.47;;;;;;;;;;757572;184;914823;-63
2022/02/13 08:26:34;;;;;;;6.27;3.77;;;;;;;;;;753842;184;923402;-65
2022/02/13 08:29:00;;;;;;;9.33;4.73;;;;;;;;;;761000;182;917971;-65
2022/02/13 08:31:26;;;;;;;10.67;3.83;;;;;;;;;;753235;180;912493;-64
2022/02/13 08:33:52;;;;;;;3.97;2.87;;;;;;;;;;755079;182;915388;-64
2022/02/13 08:36:17;;;;;;;6.27;4.03;;;;;;;;;;761802;182;916909;-65
2022/02/13 08:38:43;;;;;;;9.60;5.43;;;;;;;;;;758013;181;944376;-64
2022/02/13 08:41:09;;;;;;;10.43;4.03;;;;;;;;;;756706;182;916031;-63
2022/02/13 08:43:35;;;;;;;7.00;4.70;;;;;;;;;;757365;181;915376;-64
2022/02/13 08:46:02;;;;;;;6.70;4.70;;;;;;;;;;764755;181;1190992;-61
2022/02/13 08:48:27;;;;;;;9.07;4.80;;;;;;;;;;756246;183;919750;-62
2022/02/13 08:50:53;;;;;;;6.62;3.87;;;;;;;;;;755377;181;919347;-63
2022/02/13 08:53:18;;;;;;;6.30;5.07;;;;;;;;;;763955;181;918823;-61
2022/02/13 08:55:44;;;;;;;11.53;3.53;;;;;;;;;;756868;182;920017;-61
2022/02/13 08:58:10;;;;;;;7.87;4.53;;;;;;;;;;756537;182;920058;-62
2022/02/13 09:00:36;;;;;;;10.90;4.40;;;;;;;;;;759978;185;920493;-61
2022/02/13 09:03:02;;;;;;;5.70;4.10;;;;;;;;;;754092;183;921788;-61
2022/02/13 09:05:28;;;;;;;8.80;5.23;;;;;;;;;;757799;182;919547;-61
2022/02/13 09:07:54;;;;;;;4.60;2.53;;;;;;;;;;762388;184;919549;-62
2022/02/13 09:10:19;;;;;;;8.10;2.80;;;;;;;;;;768939;181;627585;-60
2022/02/13 09:12:45;;;;;;;8.70;2.97;;;;;;;;;;761185;181;630563;-61
2022/02/13 09:15:11;;;;;;;7.60;3.77;;;;;;;;;;755753;184;615029;-60
2022/02/13 09:17:37;;;;;;;5.50;2.70;;;;;;;;;;758255;184;920436;-61
2022/02/13 09:20:03;;;;;;;5.60;4.20;;;;;;;;;;754895;183;920573;-60
2022/02/13 09:22:29;;;;;;;6.83;3.90;;;;;;;;;;754580;183;1021176;-60
2022/02/13 09:24:55;;;;;;;5.50;3.53;;;;;;;;;;763191;180;920060;-61
2022/02/13 09:27:20;;;;;;;6.47;4.50;;;;;;;;;;756597;184;919008;-61
2022/02/13 09:29:47;;;;;;;6.93;4.43;;;;;;;;;;758031;182;919241;-60
2022/02/13 09:32:15;;;;;;;7.00;4.60;;;;;;;;;;755313;181;919339;-59
2022/02/13 09:34:39;;;;;;;9.33;4.50;;;;;;;;;;760804;183;919783;-60
2022/02/13 09:37:05;;;;;;;8.17;4.20;;;;;;;;;;739222;187;921908;-60
2022/02/13 09:39:31;;;;;;;9.53;4.57;;;;;;;;;;739002;187;919721;-59
2022/02/13 09:41:56;;;;;;;8.10;4.20;;;;;;;;;;742652;187;919013;-60
2022/02/13 09:44:23;;;;;;;20.47;4.20;;;;;;;;;;735971;184;920495;-60
2022/02/13 09:46:48;;;;;;;5.20;3.40;;;;;;;;;;737923;184;919630;-60
2022/02/13 09:49:16;;;;;;;7.67;4.23;;;;;;;;;;746325;183;920046;-59
2022/02/13 09:51:42;;;;;;;8.40;4.13;;;;;;;;;;744981;184;919930;-60
2022/02/13 09:54:07;;;;;;;6.80;3.60;;;;;;;;;;742606;185;919117;-60
2022/02/13 09:56:34;;;;;;;14.00;5.00;;;;;;;;;;739347;187;919206;-59
2022/02/13 09:58:59;;;;;;;5.43;3.70;;;;;;;;;;748104;184;920807;-60
2022/02/13 10:01:31;;;;;;;5.13;3.17;;;;;;;;;;738170;185;920448;-60
2022/02/13 10:03:57;;;;;;;7.20;3.57;;;;;;;;;;737271;186;919152;-60
2022/02/13 10:06:23;;;;;;;8.13;5.10;;;;;;;;;;743128;185;919847;-60
2022/02/13 10:08:49;;;;;;;7.60;4.33;;;;;;;;;;740013;187;919365;-61
2022/02/13 10:11:15;;;;;;;7.03;4.87;;;;;;;;;;738423;184;919368;-59
2022/02/13 10:13:42;;;;;;;6.18;3.80;;;;;;;;;;739913;186;920970;-59
2022/02/13 10:16:11;;;;;;;12.80;3.80;;;;;;;;;;735797;186;918775;-60
2022/02/13 10:18:37;;;;;;;8.13;2.50;;;;;;;;;;741952;183;919098;-63
2022/02/13 10:21:02;;;;;;;8.57;3.80;;;;;;;;;;743286;184;642257;-61
2022/02/13 10:23:28;;;;;;;7.10;4.30;;;;;;;;;;746081;187;621120;-61
2022/02/13 10:25:54;;;;;;;10.90;4.40;;;;;;;;;;742838;187;919298;-60
2022/02/13 10:28:20;;;;;;;6.50;4.70;;;;;;;;;;740059;185;921718;-60
2022/02/13 10:30:46;;;;;;;7.90;4.40;;;;;;;;;;743574;185;923203;-60
2022/02/13 10:33:13;;;;;;;6.20;4.03;;;;;;;;;;737085;187;919912;-60
2022/02/13 10:35:38;;;;;;;8.03;4.40;;;;;;;;;;737064;184;1021426;-61
2022/02/13 10:38:04;;;;;;;6.90;4.60;;;;;;;;;;736544;186;925593;-60
2022/02/13 10:40:31;;;;;;;9.90;5.57;;;;;;;;;;742100;187;1024397;-60
2022/02/13 10:43:02;;;;;;;8.93;5.50;;;;;;;;;;738857;187;919511;-60
2022/02/13 10:45:28;;;;;;;7.20;4.30;;;;;;;;;;740439;185;919709;-61
2022/02/13 10:47:54;;;;;;;6.33;4.13;;;;;;;;;;742146;187;916029;-60
2022/02/13 10:50:20;;;;;;;7.23;4.07;;;;;;;;;;741763;185;919265;-59
2022/02/13 10:52:46;;;;;;;8.53;4.67;;;;;;;;;;738574;184;920038;-61
2022/02/13 10:55:12;;;;;;;8.10;4.50;;;;;;;;;;737228;187;919312;-60
2022/02/13 10:57:39;;;;;;;9.00;4.70;;;;;;;;;;750860;182;921156;-60
2022/02/13 11:00:04;;;;;;;12.40;4.60;;;;;;;;;;757434;182;919579;-61
2022/02/13 11:02:30;;;;;;;4.97;3.60;;;;;;;;;;747875;181;917666;-89
2022/02/13 11:04:56;;;;;;;8.47;4.70;;;;;;;;;;739354;184;634297;-89
2022/02/13 11:07:22;;;;;;;7.27;3.73;;;;;;;;;;757799;184;872629;-90
2022/02/13 11:10:12;;;;;;;7.17;3.87;;;;;;;;;;761044;180;630201;-86
2022/02/13 11:12:42;;;;;;;6.57;3.50;;;;;;;;;;753917;178;695937;31
2022/02/13 11:18:02;;;;;;;7.60;4.00;;;;;;;;;;761934;177;620743;-90
2022/02/13 11:23:21;;;;;;;6.50;3.40;;;;;;;;;;742800;187;639322;-90
2022/02/13 11:28:56;;;;;;;5.63;4.60;;;;;;;;;;707805;176;641088;31
2022/02/13 11:31:28;;;;;;;5.63;4.40;;;;;;;;;;757637;179;650952;-88
2022/02/13 11:33:54;;;;;;;3.00;2.10;;;;;;;;;;774775;176;112987;-91
2022/02/13 11:36:20;;;;;;;10.30;5.00;;;;;;;;;;758081;178;642860;-90
2022/02/13 11:38:53;;;;;;;8.07;5.67;;;;;;;;;;737394;185;637814;-89
2022/02/13 11:41:20;;;;;;;6.47;3.90;;;;;;;;;;750083;179;645784;-90
2022/02/13 11:46:53;;;;;;;5.80;2.73;;;;;;;;;;754232;178;632217;-90
2022/02/13 11:49:20;;;;;;;7.47;4.40;;;;;;;;;;744912;186;656695;-90
2022/02/13 11:52:07;;;;;;;5.67;3.80;;;;;;;;;;739427;180;648625;-90
2022/02/13 11:57:18;;;;;;;5.47;3.67;;;;;;;;;;675021;190;632335;-90
2022/02/13 12:02:44;;;;;;;5.60;3.20;;;;;;;;;;729081;178;628165;-89
2022/02/13 12:05:16;;;;;;;6.90;4.20;;;;;;;;;;763729;180;624722;-89
2022/02/13 12:07:54;;;;;;;9.00;4.97;;;;;;;;;;764420;180;632707;-90
2022/02/13 12:10:19;;;;;;;10.47;5.30;;;;;;;;;;764495;177;622146;-89
2022/02/13 12:13:02;;;;;;;7.53;3.93;;;;;;;;;;757777;175;621266;31
2022/02/13 12:15:28;;;;;;;5.43;3.73;;;;;;;;;;754218;180;642249;-91
2022/02/13 12:20:47;;;;;;;9.57;5.10;;;;;;;;;;764935;178;26602;-89
2022/02/13 12:23:15;;;;;;;8.63;4.10;;;;;;;;;;743162;187;636513;-89
2022/02/13 12:25:42;;;;;;;5.13;4.13;;;;;;;;;;732762;189;633479;-90
2022/02/13 12:28:07;;;;;;;7.47;4.23;;;;;;;;;;729134;190;635028;-89
2022/02/13 12:30:33;;;;;;;8.70;4.10;;;;;;;;;;732067;191;631067;-89
2022/02/13 12:35:52;;;;;;;5.43;3.40;;;;;;;;;;687884;180;627006;-89
2022/02/13 12:38:18;;;;;;;7.57;2.90;;;;;;;;;;753803;181;624573;-89
2022/02/13 12:40:47;;;;;;;4.43;3.30;;;;;;;;;;761658;176;643623;31
2022/02/13 12:43:14;;;;;;;9.47;4.27;;;;;;;;;;742669;178;716891;-87
2022/02/13 12:45:38;;;;;;;6.10;4.20;;;;;;;;;;755565;180;640037;-90
2022/02/13 12:48:06;;;;;;;8.40;3.87;;;;;;;;;;750365;176;646414;-89
2022/02/13 12:50:32;;;;;;;8.70;6.60;;;;;;;;;;758794;181;628522;-90
2022/02/13 12:52:59;;;;;;;6.07;2.63;;;;;;;;;;746279;184;639058;-87
2022/02/13 12:55:24;;;;;;;4.27;2.93;;;;;;;;;;742922;175;638135;-89
2022/02/13 12:57:52;;;;;;;7.83;4.40;;;;;;;;;;746784;180;677419;-88
2022/02/13 13:03:10;;;;;;;6.13;2.90;;;;;;;;;;764777;179;619268;-88
2022/02/13 13:05:38;;;;;;;8.63;4.13;;;;;;;;;;756127;182;716060;-89
2022/02/13 13:08:08;;;;;;;6.30;3.47;;;;;;;;;;759299;181;630680;-89
2022/02/13 13:10:33;;;;;;;4.53;3.67;;;;;;;;;;757456;182;627849;-88
2022/02/13 13:15:26;;;;;;;3.20;1.73;;;;;;;;;;754649;179;633151;-89
2022/02/13 13:17:52;;;;;;;4.70;3.10;;;;;;;;;;745888;178;635321;-90
2022/02/13 13:23:10;;;;;;;7.10;2.70;;;;;;;;;;727306;175;645470;-88
2022/02/13 13:25:49;;;;;;;9.43;3.90;;;;;;;;;;737748;178;627743;31
2022/02/13 13:28:14;;;;;;;5.70;3.80;;;;;;;;;;770481;177;931199;-90
2022/02/13 13:33:19;;;;;;;4.03;2.77;;;;;;;;;;753994;178;653678;-89
2022/02/13 13:35:45;;;;;;;11.37;4.20;;;;;;;;;;764271;177;644041;-87
2022/02/13 13:38:11;;;;;;;5.70;3.93;;;;;;;;;;766668;178;26509;-88
2022/02/13 13:40:44;;;;;;;5.50;3.30;;;;;;;;;;761615;176;624696;31
2022/02/13 13:43:10;;;;;;;5.27;3.40;;;;;;;;;;730147;190;652515;-89
2022/02/13 13:45:36;;;;;;;6.37;3.63;;;;;;;;;;724372;191;624877;-89
2022/02/13 13:48:01;;;;;;;4.80;3.10;;;;;;;;;;727169;191;635025;-89
2022/02/13 13:50:33;;;;;;;4.32;3.30;;;;;;;;;;744694;183;649512;-89
2022/02/13 13:55:49;;;;;;;7.13;3.43;;;;;;;;;;716174;183;658421;-85
2022/02/13 13:58:15;;;;;;;5.07;3.30;;;;;;;;;;723427;190;642893;-89
2022/02/13 14:00:41;;;;;;;7.20;3.03;;;;;;;;;;722024;193;629726;-88
2022/02/13 14:03:08;;;;;;;7.80;4.00;;;;;;;;;;720747;194;640808;-89
2022/02/13 14:05:35;;;;;;;7.57;3.97;;;;;;;;;;719977;193;672243;-89
2022/02/13 14:10:55;;;;;;;5.07;3.37;;;;;;;;;;723748;178;659749;-90
2022/02/13 14:13:19;;;;;;;6.70;4.20;;;;;;;;;;766926;178;26591;-89
2022/02/13 14:15:45;;;;;;;6.30;3.60;;;;;;;;;;735310;187;629865;-90
2022/02/13 14:18:11;;;;;;;11.90;3.73;;;;;;;;;;723040;191;647877;-89
2022/02/13 14:20:37;;;;;;;4.63;3.17;;;;;;;;;;727916;191;637183;-89
2022/02/13 14:23:03;;;;;;;7.53;3.67;;;;;;;;;;723191;192;674954;-89
2022/02/13 14:25:30;;;;;;;6.83;3.47;;;;;;;;;;745305;180;629034;-88
2022/02/13 14:27:55;;;;;;;4.60;3.20;;;;;;;;;;756771;184;632040;-89
2022/02/13 14:30:21;;;;;;;5.97;3.97;;;;;;;;;;758395;182;657805;-89
2022/02/13 14:32:47;;;;;;;7.23;3.43;;;;;;;;;;761442;181;641200;-87
2022/02/13 14:35:13;;;;;;;7.22;3.92;;;;;;;;;;765634;179;633268;-88
2022/02/13 14:37:38;;;;;;;5.00;3.10;;;;;;;;;;763494;182;639644;-89
2022/02/13 14:40:05;;;;;;;5.03;3.27;;;;;;;;;;758190;180;654384;-89
2022/02/13 14:42:31;;;;;;;5.50;3.90;;;;;;;;;;757603;181;777925;-89
2022/02/13 14:44:57;;;;;;;6.93;4.03;;;;;;;;;;762651;183;642725;-88
2022/02/13 14:47:22;;;;;;;7.30;4.07;;;;;;;;;;760348;183;635821;-90
2022/02/13 14:49:48;;;;;;;4.90;3.20;;;;;;;;;;759010;179;650621;-88
2022/02/13 14:52:16;;;;;;;6.20;3.80;;;;;;;;;;760718;183;681362;-87
2022/02/13 14:54:40;;;;;;;4.93;3.30;;;;;;;;;;757130;183;673258;-89
2022/02/13 14:57:06;;;;;;;8.93;3.53;;;;;;;;;;757279;180;633842;-89